Time;durP1;ratioP1;P1;durP2;ratioP2;P2;SDS_P1;SDS_P2;PMS_P1;PMS_P2;Temp;Humidity;BMP_temperature;BMP_pressure;BME280_temperature;BME280_humidity;BME280_pressure;Samples;Min_cycle;Max_cycle;Signal;HPM_P1;HPM_P2
2022/12/07 00:01:33;;;;;;;4.00;3.00;;;;;;;-3.14;84.57;98686.49;101913;1295;61827;-26
2022/12/07 00:04:04;;;;;;;6.30;4.30;;;;;;;-2.76;83.39;98680.40;102002;1298;62316;-27
2022/12/07 00:06:37;;;;;;;7.70;3.70;;;;;;;-2.71;82.81;98676.48;102078;1301;75797;-24
2022/12/07 00:09:04;;;;;;;7.20;4.70;;;;;;;-2.92;82.96;98669.18;101928;1297;76747;-24
2022/12/07 00:11:32;;;;;;;6.30;3.50;;;;;;;-3.19;83.96;98669.17;102082;1297;73965;-24
2022/12/07 00:14:01;;;;;;;7.40;3.80;;;;;;;-3.14;84.35;98671.56;102196;1294;61964;-24
2022/12/07 00:16:29;;;;;;;6.00;4.00;;;;;;;-2.64;83.50;98672.52;101946;1304;62870;-24
2022/12/07 00:18:56;;;;;;;7.20;4.80;;;;;;;-2.53;82.37;98665.70;101996;1296;76408;-24
2022/12/07 00:21:25;;;;;;;3.80;3.30;;;;;;;-2.74;82.56;98659.61;102214;1294;75757;-24
2022/12/07 00:23:53;;;;;;;5.90;3.40;;;;;;;-2.98;83.41;98664.80;102127;1302;75429;-24
2022/12/07 00:26:22;;;;;;;5.20;3.20;;;;;;;-3.16;84.10;98668.60;102060;1303;62087;-24
2022/12/07 00:28:53;;;;;;;7.20;4.30;;;;;;;-2.98;84.40;98664.80;101920;1294;61775;-24
2022/12/07 00:31:22;;;;;;;8.30;4.40;;;;;;;-2.57;82.99;98662.59;101919;1301;76230;-24
2022/12/07 00:33:49;;;;;;;4.70;2.70;;;;;;;-2.54;82.50;98652.80;101960;1302;75684;-24
2022/12/07 00:36:21;;;;;;;6.80;3.20;;;;;;;-2.73;82.50;98652.27;101870;1304;75373;-24
2022/12/07 00:38:57;;;;;;;5.90;3.70;;;;;;;-2.96;83.06;98649.75;101933;1302;62096;-24
2022/12/07 00:41:25;;;;;;;3.90;2.80;;;;;;;-3.14;83.99;98646.29;101916;1304;62846;-24
2022/12/07 00:43:52;;;;;;;5.40;3.20;;;;;;;-2.76;83.81;98645.89;101984;1301;74312;-24
2022/12/07 00:46:20;;;;;;;5.40;3.30;;;;;;;-2.52;82.27;98638.63;102114;1300;76021;-24
2022/12/07 00:48:48;;;;;;;4.40;2.50;;;;;;;-2.60;81.78;98639.58;102145;1301;75208;-24
2022/12/07 00:51:16;;;;;;;2.30;2.00;;;;;;;-2.76;82.51;98638.42;101996;1301;61076;-24
2022/12/07 00:53:43;;;;;;;2.60;1.70;;;;;;;-3.00;83.03;98635.11;101942;1301;62174;-24
2022/12/07 00:56:23;;;;;;;5.80;3.40;;;;;;;-3.01;83.51;98634.14;102127;1292;76330;-24
2022/12/07 00:58:58;;;;;;;4.00;2.30;;;;;;;-2.50;82.57;98634.14;101950;1304;76488;-24
2022/12/07 01:01:26;;;;;;;4.80;3.30;;;;;;;-2.37;81.62;98631.82;102012;1297;74939;-24
2022/12/07 01:03:53;;;;;;;7.60;4.50;;;;;;;-2.53;81.36;98631.52;101935;1301;61169;-24
2022/12/07 01:06:21;;;;;;;10.00;4.60;;;;;;;-2.76;81.88;98627.71;102083;1302;62819;-24
2022/12/07 01:08:48;;;;;;;5.90;3.70;;;;;;;-2.97;82.46;98630.95;102007;1304;75294;-24
2022/12/07 01:11:18;;;;;;;10.20;4.60;;;;;;;-2.77;82.95;98628.25;101924;1301;76488;-24
2022/12/07 01:13:45;;;;;;;5.70;3.30;;;;;;;-2.27;81.60;98629.27;101974;1295;75232;-24
2022/12/07 01:16:14;;;;;;;4.30;3.00;;;;;;;-2.18;80.68;98630.47;102109;1294;61146;-24
2022/12/07 01:18:41;;;;;;;6.90;4.00;;;;;;;-2.37;80.41;98627.24;102074;1296;61589;-24
2022/12/07 01:21:13;;;;;;;5.50;2.90;;;;;;;-2.62;81.02;98624.52;102143;1302;75355;-24
2022/12/07 01:23:40;;;;;;;7.30;3.20;;;;;;;-2.86;82.06;98621.07;101956;1301;75845;-24
2022/12/07 01:26:09;;;;;;;4.60;2.80;;;;;;;-2.85;82.60;98617.48;102198;1297;75227;-24
2022/12/07 01:28:36;;;;;;;5.70;3.60;;;;;;;-2.41;81.71;98617.86;102049;1295;62719;-24
2022/12/07 01:31:11;;;;;;;5.70;3.00;;;;;;;-2.26;80.81;98618.52;102006;1294;61895;-24
2022/12/07 01:33:38;;;;;;;4.70;3.10;;;;;;;-2.43;80.77;98618.09;102027;1301;76055;-24
2022/12/07 01:36:16;;;;;;;5.60;2.80;;;;;;;-2.65;81.51;98613.74;102205;1295;76788;-25
2022/12/07 01:38:44;;;;;;;4.60;2.60;;;;;;;-2.86;82.23;98616.67;102117;1302;75309;-25
2022/12/07 01:41:11;;;;;;;4.70;2.70;;;;;;;-2.88;82.74;98611.79;102044;1302;61695;-25
2022/12/07 01:44:17;;;;;;;2.90;2.10;;;;;;;-2.40;81.93;98608.80;102109;1301;62867;-25
2022/12/07 01:46:48;;;;;;;6.10;2.60;;;;;;;-2.28;80.61;98609.05;102082;1304;76395;-25
2022/12/07 01:49:22;;;;;;;5.40;3.90;;;;;;;-2.49;81.01;98601.14;101899;1304;75538;-25
2022/12/07 01:51:49;;;;;;;3.30;3.00;;;;;;;-2.73;81.55;98603.31;101925;1302;73175;-24
2022/12/07 01:54:16;;;;;;;5.20;3.00;;;;;;;-2.93;82.23;98602.62;102155;1301;61163;-24
2022/12/07 01:56:54;;;;;;;4.40;2.80;;;;;;;-2.75;82.54;98607.29;102156;1301;61140;-24
2022/12/07 01:59:24;;;;;;;4.40;2.70;;;;;;;-2.19;81.20;98601.94;101979;1298;76766;-24
2022/12/07 02:01:52;;;;;;;3.10;2.00;;;;;;;-2.13;79.93;98598.33;101892;1297;76800;-24
2022/12/07 02:04:19;;;;;;;4.70;3.20;;;;;;;-2.32;80.37;98593.55;102020;1304;75248;-24
2022/12/07 02:06:46;;;;;;;3.60;2.60;;;;;;;-2.56;80.71;98587.42;102116;1292;61119;-24
2022/12/07 02:09:13;;;;;;;5.40;2.70;;;;;;;-2.78;81.68;98587.00;102114;1294;62860;-24
2022/12/07 02:11:40;;;;;;;7.10;3.00;;;;;;;-2.78;82.29;98583.42;102185;1294;75960;-25
2022/12/07 02:14:07;;;;;;;3.60;2.80;;;;;;;-2.31;81.57;98585.54;102243;1299;75916;-24
2022/12/07 02:16:38;;;;;;;5.10;3.20;;;;;;;-2.17;80.55;98583.66;102250;1302;74202;-25
2022/12/07 02:19:43;;;;;;;5.10;3.00;;;;;;;-2.27;80.23;98579.61;102266;1294;61686;-25
2022/12/07 02:22:22;;;;;;;3.00;2.30;;;;;;;-2.58;80.89;98582.58;102308;1284;61969;-24
2022/12/07 02:24:55;;;;;;;3.10;2.20;;;;;;;-2.82;81.46;98578.27;102200;1302;76307;-24
2022/12/07 02:27:38;;;;;;;2.60;1.80;;;;;;;-2.73;82.06;98576.45;102205;1299;76888;-24
2022/12/07 02:30:06;;;;;;;5.50;2.80;;;;;;;-2.18;80.97;98577.26;101984;1297;75361;-23
2022/12/07 02:32:48;;;;;;;4.10;2.20;;;;;;;-2.07;80.10;98577.01;102272;1299;61154;-22
2022/12/07 02:35:22;;;;;;;3.80;2.50;;;;;;;-2.28;80.16;98572.66;102172;1294;61836;-24
2022/12/07 02:38:11;;;;;;;3.00;2.20;;;;;;;-2.53;80.53;98569.16;102158;1299;74340;-23
2022/12/07 02:40:44;;;;;;;4.00;2.80;;;;;;;-2.77;81.42;98567.27;102168;1294;76487;-24
2022/12/07 02:43:17;;;;;;;4.60;2.20;;;;;;;-2.57;82.19;98565.53;102302;1295;75468;-24
2022/12/07 02:45:44;;;;;;;2.30;1.90;;;;;;;-2.10;80.50;98566.59;102111;1291;61673;-24
2022/12/07 02:48:12;;;;;;;4.40;2.70;;;;;;;-2.06;80.13;98562.50;102169;1295;63105;-24
2022/12/07 02:50:39;;;;;;;4.70;3.00;;;;;;;-2.25;80.08;98562.54;102279;1292;76632;-24
2022/12/07 02:53:28;;;;;;;6.40;2.60;;;;;;;-2.50;81.02;98561.21;102206;1299;76956;-23
2022/12/07 02:55:55;;;;;;;3.60;2.00;;;;;;;-2.80;81.99;98563.45;102196;1302;75433;-24
2022/12/07 02:58:58;;;;;;;4.50;2.20;;;;;;;-2.75;82.80;98557.83;102206;1300;63567;-24
2022/12/07 03:01:49;;;;;;;3.00;1.90;;;;;;;-2.16;81.67;98561.68;101998;1299;63152;-23
2022/12/07 03:04:28;;;;;;;1.90;1.70;;;;;;;-2.18;80.43;98558.35;102000;1294;76572;-24
2022/12/07 03:07:29;;;;;;;5.00;2.50;;;;;;;-2.39;80.65;98556.23;102064;1301;75808;-24
2022/12/07 03:10:02;;;;;;;5.50;3.00;;;;;;;-2.66;81.33;98549.38;102085;1294;75218;-24
2022/12/07 03:13:07;;;;;;;2.40;1.70;;;;;;;-2.74;82.16;98550.67;101935;1297;63660;-25
2022/12/07 03:15:39;;;;;;;8.20;4.20;;;;;;;-2.11;80.98;98550.12;101952;1297;62843;-26
2022/12/07 03:18:06;;;;;;;3.70;2.80;;;;;;;-2.02;79.79;98549.44;102084;1294;75329;-25
2022/12/07 03:20:33;;;;;;;2.50;1.90;;;;;;;-2.18;79.59;98549.17;101962;1302;77075;-25
2022/12/07 03:23:00;;;;;;;3.70;2.50;;;;;;;-2.45;80.28;98544.38;102086;1301;75334;-25
2022/12/07 03:25:27;;;;;;;4.00;2.30;;;;;;;-2.68;81.39;98545.87;102043;1300;61278;-25
2022/12/07 03:27:57;;;;;;;3.30;2.00;;;;;;;-2.79;82.04;98544.05;102096;1294;62006;-22
2022/12/07 03:30:46;;;;;;;3.80;2.60;;;;;;;-2.27;81.57;98541.52;101960;1297;75423;-23
2022/12/07 03:33:18;;;;;;;2.60;2.00;;;;;;;-1.92;80.20;98533.92;102159;1296;76546;-23
2022/12/07 03:36:07;;;;;;;3.60;1.80;;;;;;;-2.01;79.60;98534.59;102043;1297;75228;-23
2022/12/07 03:38:40;;;;;;;3.90;2.60;;;;;;;-2.27;79.81;98538.44;101960;1302;62135;-23
2022/12/07 03:41:17;;;;;;;2.60;2.00;;;;;;;-2.52;80.72;98531.90;101879;1298;62785;-24
2022/12/07 03:43:44;;;;;;;2.30;1.20;;;;;;;-2.72;81.53;98528.68;101980;1300;76169;-22
2022/12/07 03:46:28;;;;;;;3.00;1.80;;;;;;;-2.42;81.86;98528.62;102121;1300;76720;-22
2022/12/07 03:49:18;;;;;;;2.60;2.40;;;;;;;-1.93;80.27;98524.27;101952;1298;73962;-23
2022/12/07 03:52:11;;;;;;;2.20;1.50;;;;;;;-1.94;79.80;98526.84;102012;1295;61187;-23
2022/12/07 03:54:43;;;;;;;2.40;1.90;;;;;;;-2.20;79.95;98530.88;102025;1302;61470;-23
2022/12/07 03:57:10;;;;;;;2.00;1.50;;;;;;;-2.43;80.41;98532.05;101896;1298;76094;-23
2022/12/07 03:59:37;;;;;;;2.60;2.10;;;;;;;-2.67;81.30;98526.45;101916;1300;74859;-23
2022/12/07 04:02:06;;;;;;;2.00;1.60;;;;;;;-2.57;81.81;98523.71;101998;1298;74819;-23
2022/12/07 04:04:33;;;;;;;2.80;2.00;;;;;;;-2.05;80.97;98517.55;101967;1302;61939;-23
2022/12/07 04:07:00;;;;;;;2.30;1.80;;;;;;;-1.93;79.79;98517.27;101890;1301;61896;-23
2022/12/07 04:09:27;;;;;;;1.70;1.40;;;;;;;-2.09;79.81;98526.36;102018;1301;76129;-23
2022/12/07 04:11:54;;;;;;;2.60;2.00;;;;;;;-2.29;79.88;98524.76;102094;1299;76692;-23
2022/12/07 04:14:21;;;;;;;1.60;1.50;;;;;;;-2.53;80.78;98524.96;102112;1301;74964;-23
2022/12/07 04:16:49;;;;;;;2.10;1.40;;;;;;;-2.66;81.72;98527.80;102049;1301;63658;-23
2022/12/07 04:19:18;;;;;;;2.60;1.30;;;;;;;-2.21;81.43;98527.02;101995;1301;61943;-23
2022/12/07 04:21:45;;;;;;;2.30;1.70;;;;;;;-1.93;80.29;98515.40;102061;1294;76386;-23
2022/12/07 04:24:13;;;;;;;3.60;2.20;;;;;;;-2.05;79.91;98514.83;102177;1302;75810;-23
2022/12/07 04:26:41;;;;;;;3.80;2.40;;;;;;;-2.27;80.46;98512.09;101982;1297;75218;-23
2022/12/07 04:29:08;;;;;;;3.00;2.00;;;;;;;-2.49;80.98;98514.60;102022;1299;61185;-23
2022/12/07 04:31:36;;;;;;;1.90;1.30;;;;;;;-2.66;81.68;98514.52;102287;1299;62810;-23
2022/12/07 04:34:03;;;;;;;2.50;1.90;;;;;;;-2.30;81.59;98504.56;102254;1299;76262;-23
2022/12/07 04:36:30;;;;;;;2.70;1.80;;;;;;;-1.77;80.59;98506.97;102135;1294;76757;-23
2022/12/07 04:38:57;;;;;;;2.20;1.70;;;;;;;-1.78;79.38;98505.81;102316;1297;75166;-23
2022/12/07 04:41:27;;;;;;;2.20;1.60;;;;;;;-2.02;79.75;98510.48;102163;1297;61115;-23
2022/12/07 04:44:00;;;;;;;1.50;1.30;;;;;;;-2.24;80.24;98512.50;102006;1294;62709;-23
2022/12/07 04:46:28;;;;;;;1.70;1.30;;;;;;;-2.48;81.21;98515.91;102043;1297;76391;-23
2022/12/07 04:48:55;;;;;;;1.60;1.20;;;;;;;-2.54;81.81;98513.42;102065;1299;75859;-22
2022/12/07 04:51:27;;;;;;;1.50;1.20;;;;;;;-2.06;81.02;98508.08;102180;1299;74197;-24
2022/12/07 04:53:54;;;;;;;2.20;1.20;;;;;;;-1.84;79.83;98502.83;102038;1299;61903;-24
2022/12/07 04:56:21;;;;;;;1.60;1.30;;;;;;;-1.94;79.54;98506.59;102257;1291;61160;-24
2022/12/07 04:58:49;;;;;;;1.50;1.40;;;;;;;-2.13;79.91;98508.84;102224;1292;76447;-24
2022/12/07 05:01:16;;;;;;;2.00;1.40;;;;;;;-2.35;80.67;98506.27;101943;1299;75707;-24
2022/12/07 05:03:43;;;;;;;1.00;0.70;;;;;;;-2.55;81.33;98506.32;102121;1292;75578;-24
2022/12/07 05:06:11;;;;;;;2.30;1.20;;;;;;;-2.14;81.62;98502.77;102148;1292;61761;-23
2022/12/07 05:08:40;;;;;;;1.30;1.20;;;;;;;-1.72;80.29;98501.63;102225;1297;61786;-24
2022/12/07 05:11:07;;;;;;;2.50;1.30;;;;;;;-1.72;79.29;98501.83;102088;1301;76182;-24
2022/12/07 05:13:34;;;;;;;1.50;1.00;;;;;;;-1.91;79.62;98501.05;102118;1299;76453;-24
2022/12/07 05:16:01;;;;;;;1.50;1.10;;;;;;;-2.17;80.39;98502.35;102135;1295;74139;-24
2022/12/07 05:18:29;;;;;;;2.40;1.50;;;;;;;-2.42;81.04;98505.50;102219;1291;61603;-24
2022/12/07 05:20:55;;;;;;;3.00;1.70;;;;;;;-2.32;81.43;98505.83;102101;1299;61833;-24
2022/12/07 05:23:22;;;;;;;4.00;1.70;;;;;;;-1.80;80.37;98507.42;102243;1294;76476;-24
2022/12/07 05:25:49;;;;;;;1.40;1.10;;;;;;;-1.64;79.46;98501.17;102248;1294;76751;-24
2022/12/07 05:28:16;;;;;;;2.00;1.30;;;;;;;-1.79;79.37;98502.28;102259;1300;75220;-31
2022/12/07 05:30:43;;;;;;;2.00;1.30;;;;;;;-2.03;79.81;98502.67;102315;1294;61794;-24
2022/12/07 05:33:10;;;;;;;1.10;0.90;;;;;;;-2.26;80.41;98500.33;102326;1299;61810;-24
2022/12/07 05:35:37;;;;;;;1.10;1.00;;;;;;;-2.34;81.42;98506.08;102232;1302;74390;-24
2022/12/07 05:38:04;;;;;;;1.30;0.90;;;;;;;-1.92;80.58;98504.31;102096;1302;76969;-24
2022/12/07 05:40:31;;;;;;;1.40;1.20;;;;;;;-1.75;79.93;98495.13;102104;1302;75263;-24
2022/12/07 05:42:58;;;;;;;1.50;1.00;;;;;;;-1.87;79.83;98493.23;102213;1299;61123;-24
2022/12/07 05:45:30;;;;;;;1.70;1.20;;;;;;;-2.09;80.46;98495.93;102282;1291;62723;-24
2022/12/07 05:47:58;;;;;;;1.50;1.10;;;;;;;-2.28;81.02;98494.13;102158;1297;76077;-24
2022/12/07 05:50:24;;;;;;;0.90;0.80;;;;;;;-2.33;81.42;98494.79;102126;1294;75882;-24
2022/12/07 05:52:59;;;;;;;1.00;0.80;;;;;;;-1.69;80.67;98490.12;102226;1294;75224;-24
2022/12/07 05:55:26;;;;;;;2.20;1.00;;;;;;;-1.42;79.28;98487.02;102010;1291;61159;-24
2022/12/07 06:00:39;;;;;;;2.20;1.30;;;;;;;-1.77;79.37;98489.23;102334;1292;76389;-24
2022/12/07 06:03:06;;;;;;;2.80;1.40;;;;;;;-2.02;79.93;98487.69;102219;1292;75817;-24
2022/12/07 06:05:33;;;;;;;2.40;1.50;;;;;;;-2.27;81.02;98487.61;102217;1302;75231;-24
2022/12/07 06:08:00;;;;;;;2.20;1.00;;;;;;;-2.20;81.48;98480.39;102125;1302;62608;-24
2022/12/07 06:10:31;;;;;;;3.10;1.90;;;;;;;-1.64;80.26;98470.88;102153;1302;62837;-24
2022/12/07 06:12:58;;;;;;;2.10;1.80;;;;;;;-1.46;79.57;98470.33;102114;1299;75151;-24
2022/12/07 06:15:26;;;;;;;1.70;1.40;;;;;;;-1.59;78.76;98468.46;102091;1298;75711;-24
2022/12/07 06:17:53;;;;;;;1.80;1.60;;;;;;;-1.82;79.54;98478.92;102134;1297;74959;-24
2022/12/07 06:20:20;;;;;;;3.60;2.00;;;;;;;-2.03;80.41;98489.25;102257;1291;61060;-24
2022/12/07 06:22:46;;;;;;;1.20;0.90;;;;;;;-2.25;81.19;98493.30;102261;1291;62925;-24
2022/12/07 06:25:14;;;;;;;3.10;2.10;;;;;;;-2.09;81.52;98493.02;101305;1299;1385507;-25
2022/12/07 06:27:41;;;;;;;1.20;1.10;;;;;;;-1.59;80.45;98482.95;101993;1304;75860;-23
2022/12/07 06:30:08;;;;;;;0.90;0.80;;;;;;;-1.53;79.56;98482.02;102169;1300;74176;-23
2022/12/07 06:32:36;;;;;;;2.70;2.10;;;;;;;-1.69;79.98;98491.16;102014;1302;61159;-23
2022/12/07 06:35:04;;;;;;;2.60;1.70;;;;;;;-1.88;80.63;98487.50;102329;1297;62515;-23
2022/12/07 06:37:31;;;;;;;2.20;1.10;;;;;;;-2.14;81.40;98493.74;102251;1302;75512;-23
2022/12/07 06:39:58;;;;;;;2.00;1.40;;;;;;;-1.89;81.79;98490.55;102300;1294;75927;-23
2022/12/07 06:42:25;;;;;;;2.40;1.70;;;;;;;-1.38;80.29;98488.55;102316;1301;75240;-23
2022/12/07 06:44:52;;;;;;;2.70;1.50;;;;;;;-1.31;79.41;98486.55;102300;1295;61813;-23
2022/12/07 06:47:19;;;;;;;3.40;2.30;;;;;;;-1.45;80.02;98484.40;102356;1302;62698;-23
2022/12/07 06:50:07;;;;;;;3.70;2.10;;;;;;;-1.75;80.66;98503.98;102316;1294;75496;-23
2022/12/07 06:52:34;;;;;;;2.00;1.40;;;;;;;-1.98;81.33;98506.73;102311;1302;76524;-23
2022/12/07 06:55:01;;;;;;;1.60;1.20;;;;;;;-1.97;81.97;98507.20;102309;1293;73919;-23
2022/12/07 06:57:28;;;;;;;1.70;1.40;;;;;;;-1.31;80.91;98505.63;102073;1302;61138;-23
2022/12/07 06:59:55;;;;;;;2.60;2.20;;;;;;;-1.05;79.48;98509.16;102002;1300;62572;-23
2022/12/07 07:02:22;;;;;;;4.00;2.30;;;;;;;-1.14;79.25;98503.54;102067;1299;76273;-23
2022/12/07 07:04:49;;;;;;;3.80;2.40;;;;;;;-1.44;79.87;98504.63;101968;1292;75810;-23
2022/12/07 07:07:16;;;;;;;2.50;1.80;;;;;;;-1.67;80.86;98503.85;101974;1302;75213;-23
2022/12/07 07:09:43;;;;;;;5.20;2.70;;;;;;;-1.90;81.48;98504.55;102013;1294;62056;-23
2022/12/07 07:12:10;;;;;;;2.20;1.40;;;;;;;-1.79;82.05;98495.13;102074;1301;61671;-23
2022/12/07 07:14:37;;;;;;;2.20;2.00;;;;;;;-1.30;80.95;98488.55;102308;1299;75394;-23
2022/12/07 07:17:04;;;;;;;2.00;1.50;;;;;;;-1.18;80.24;98493.02;102281;1297;76674;-23
2022/12/07 07:19:31;;;;;;;1.80;1.40;;;;;;;-1.35;80.56;98488.42;102140;1302;73913;-23
2022/12/07 07:21:58;;;;;;;2.40;1.70;;;;;;;-1.58;81.22;98486.63;102176;1293;62324;-23
2022/12/07 07:24:25;;;;;;;3.30;1.80;;;;;;;-1.83;82.14;98486.42;101997;1299;62736;-23
2022/12/07 07:26:52;;;;;;;3.50;2.00;;;;;;;-1.85;82.89;98483.42;101955;1297;76114;-23
2022/12/07 07:29:18;;;;;;;2.70;1.70;;;;;;;-1.32;82.35;98482.16;102181;1298;75827;-23
2022/12/07 07:31:45;;;;;;;5.40;2.00;;;;;;;-1.16;81.36;98489.19;102168;1302;75340;-23
2022/12/07 07:34:12;;;;;;;1.90;1.70;;;;;;;-1.21;81.07;98494.83;102183;1299;61126;-23
2022/12/07 07:36:39;;;;;;;6.30;3.30;;;;;;;-1.36;81.46;98493.77;102160;1299;62734;-23
2022/12/07 07:39:06;;;;;;;5.90;3.30;;;;;;;-1.54;81.90;98491.25;102320;1297;75095;-27
2022/12/07 07:41:33;;;;;;;3.30;1.90;;;;;;;-1.52;82.62;98483.67;102196;1299;76742;-27
2022/12/07 07:44:01;;;;;;;3.70;2.60;;;;;;;-1.06;81.97;98485.19;102246;1302;74112;-27
2022/12/07 07:46:28;;;;;;;3.30;1.80;;;;;;;-0.96;80.88;98479.77;101993;1301;61257;-25
2022/12/07 07:48:55;;;;;;;4.70;3.30;;;;;;;-1.09;80.92;98480.35;102280;1291;62640;-26
2022/12/07 07:51:22;;;;;;;5.00;2.60;;;;;;;-1.29;81.57;98476.91;102312;1299;75041;-26
2022/12/07 07:53:49;;;;;;;4.70;2.90;;;;;;;-1.45;82.14;98482.02;102287;1292;75543;-24
2022/12/07 07:56:16;;;;;;;4.30;2.20;;;;;;;-1.42;82.76;98480.19;102217;1299;73722;-24
2022/12/07 07:58:43;;;;;;;4.40;2.80;;;;;;;-0.79;81.84;98481.79;102230;1298;61380;-24
2022/12/07 08:01:10;;;;;;;5.20;2.80;;;;;;;-0.52;80.14;98484.36;102116;1299;61520;-24
2022/12/07 08:03:37;;;;;;;6.20;2.80;;;;;;;-0.62;80.03;98486.66;102162;1302;76725;-25
2022/12/07 08:06:04;;;;;;;4.40;2.00;;;;;;;-0.84;80.58;98487.97;102129;1298;76371;-24
2022/12/07 08:08:31;;;;;;;3.30;2.50;;;;;;;-1.05;81.15;98487.70;102087;1302;74979;-24
2022/12/07 08:11:01;;;;;;;5.80;2.60;;;;;;;-1.24;81.92;98483.55;101984;1301;61738;-24
2022/12/07 08:13:28;;;;;;;4.60;2.70;;;;;;;-1.09;82.09;98488.70;102105;1301;61102;-24
2022/12/07 08:15:58;;;;;;;4.10;2.30;;;;;;;-0.56;81.27;98488.77;102119;1302;76230;-24
2022/12/07 08:18:25;;;;;;;4.20;2.70;;;;;;;-0.41;80.13;98485.75;102281;1298;76558;-24
2022/12/07 08:20:52;;;;;;;4.60;3.40;;;;;;;-0.60;80.10;98484.20;102084;1294;75086;-24
2022/12/07 08:23:19;;;;;;;6.50;3.90;;;;;;;-0.88;80.85;98485.93;101978;1304;61566;-24
2022/12/07 08:56:35;;;;;;;6.10;3.50;;;;;;;-2.11;87.80;98458.75;99648;1318;616088;-24
2022/12/07 08:59:04;;;;;;;4.70;3.20;;;;;;;-1.20;86.62;98455.42;101295;1312;61150;-24
2022/12/07 09:01:31;;;;;;;7.30;3.90;;;;;;;-0.50;84.17;98458.69;101152;1312;61132;-24
2022/12/07 09:03:59;;;;;;;6.60;3.50;;;;;;;-0.39;82.76;98452.55;101485;1304;72648;-24
2022/12/07 09:06:26;;;;;;;6.70;3.30;;;;;;;-0.56;82.46;98447.67;101344;1312;75773;-24
2022/12/07 09:08:56;;;;;;;8.70;3.40;;;;;;;-0.73;82.86;98446.26;100523;1308;1255221;-24
2022/12/07 09:11:23;;;;;;;2.60;2.30;;;;;;;-0.87;83.58;98444.65;102171;1294;63518;-24
2022/12/07 09:13:55;;;;;;;3.10;2.10;;;;;;;-0.32;82.91;98445.73;102389;1291;61976;-24
2022/12/07 09:16:22;;;;;;;6.70;3.70;;;;;;;0.04;81.14;98451.25;102438;1298;73562;-24
2022/12/07 09:18:50;;;;;;;5.00;4.20;;;;;;;-0.04;80.62;98449.22;102416;1299;75811;-24
2022/12/07 09:21:16;;;;;;;7.20;3.80;;;;;;;-0.22;80.91;98445.62;102383;1291;74094;-24
2022/12/07 09:23:43;;;;;;;8.00;4.10;;;;;;;-0.38;81.67;98446.87;102417;1298;61104;-24
2022/12/07 09:26:10;;;;;;;6.00;3.00;;;;;;;-0.49;82.26;98441.94;102334;1299;61742;-24
2022/12/07 09:28:37;;;;;;;5.70;2.70;;;;;;;-0.13;82.03;98426.47;102392;1297;74526;-24
2022/12/07 09:31:05;;;;;;;6.50;3.50;;;;;;;0.33;80.37;98436.02;102370;1297;75946;-24
2022/12/07 09:33:56;;;;;;;8.80;4.30;;;;;;;0.46;79.53;98436.23;102377;1298;73265;-25
2022/12/07 09:36:23;;;;;;;7.00;3.10;;;;;;;0.27;79.51;98440.58;102291;1291;61267;-24
2022/12/07 09:38:51;;;;;;;8.50;4.50;;;;;;;0.24;79.73;98442.61;102406;1296;61948;-24
2022/12/07 09:41:18;;;;;;;6.90;3.60;;;;;;;0.23;79.96;98439.94;102419;1299;73524;-24
2022/12/07 09:43:46;;;;;;;5.00;2.40;;;;;;;0.64;79.84;98439.45;102374;1299;74716;-27
2022/12/07 09:46:15;;;;;;;8.50;4.20;;;;;;;1.32;77.37;98440.60;102412;1288;74419;-25
2022/12/07 09:48:42;;;;;;;6.80;3.70;;;;;;;1.39;76.78;98436.28;102224;1294;61871;-27
2022/12/07 09:51:23;;;;;;;7.90;4.10;;;;;;;1.51;76.22;98435.10;102233;1302;61902;-25
2022/12/07 09:53:53;;;;;;;4.50;2.70;;;;;;;0.90;76.88;98439.17;102347;1299;74692;-28
2022/12/07 09:56:21;;;;;;;9.00;5.00;;;;;;;0.76;77.76;98439.88;102025;1302;74787;-23
2022/12/07 09:58:48;;;;;;;5.70;2.80;;;;;;;0.67;78.72;98438.27;102307;1294;74182;-26
2022/12/07 10:01:20;;;;;;;5.00;3.30;;;;;;;1.08;77.96;98431.89;102307;1298;61077;-27
2022/12/07 10:03:55;;;;;;;5.50;3.80;;;;;;;1.30;76.92;98428.38;102025;1297;61180;-26
2022/12/07 10:06:22;;;;;;;6.50;2.70;;;;;;;1.35;76.44;98425.39;102125;1302;74459;-26
2022/12/07 10:08:49;;;;;;;8.50;4.10;;;;;;;1.20;76.70;98426.52;102339;1301;75771;-26
2022/12/07 10:11:16;;;;;;;4.10;3.10;;;;;;;1.06;77.15;98418.84;102369;1299;74349;-26
2022/12/07 10:13:47;;;;;;;7.60;3.80;;;;;;;0.63;78.54;98420.86;102359;1300;61129;-26
2022/12/07 10:16:28;;;;;;;8.70;4.60;;;;;;;0.82;79.34;98424.34;102207;1295;61189;-26
2022/12/07 10:18:55;;;;;;;5.50;3.70;;;;;;;1.49;77.61;98425.83;102212;1294;74580;-26
2022/12/07 10:21:26;;;;;;;10.30;5.40;;;;;;;1.37;76.67;98432.11;102329;1299;76019;-26
2022/12/07 10:24:17;;;;;;;7.20;4.20;;;;;;;1.23;77.44;98433.00;102347;1299;74185;-26
2022/12/07 10:26:47;;;;;;;6.60;4.40;;;;;;;0.98;78.38;98431.74;102159;1299;61065;-25
2022/12/07 10:29:16;;;;;;;3.80;3.00;;;;;;;0.78;79.15;98435.48;102373;1298;61901;-25
2022/12/07 10:31:44;;;;;;;5.20;2.80;;;;;;;0.58;80.32;98438.02;102370;1295;74608;-25
2022/12/07 10:34:29;;;;;;;5.00;2.70;;;;;;;1.01;79.75;98428.67;102264;1290;74071;-25
2022/12/07 10:37:18;;;;;;;2.90;2.30;;;;;;;1.20;78.73;98431.98;102165;1300;74258;-25
2022/12/07 10:39:53;;;;;;;2.50;2.00;;;;;;;1.17;78.64;98431.61;102148;1301;61165;-25
2022/12/07 10:42:20;;;;;;;5.30;3.20;;;;;;;0.99;79.10;98432.88;102189;1302;61974;-25
2022/12/07 10:44:48;;;;;;;4.50;2.80;;;;;;;0.90;79.42;98431.46;102261;1300;74713;-26
2022/12/07 10:47:29;;;;;;;4.70;3.20;;;;;;;0.89;79.78;98434.95;102081;1305;74676;-25
2022/12/07 10:50:02;;;;;;;5.50;3.50;;;;;;;1.36;78.83;98439.02;102393;1289;74019;-26
2022/12/07 10:52:53;;;;;;;4.10;3.00;;;;;;;1.54;77.90;98441.27;102145;1302;61423;-26
2022/12/07 10:55:23;;;;;;;4.40;2.70;;;;;;;1.41;77.91;98442.50;102295;1299;61167;-26
2022/12/07 10:58:12;;;;;;;6.30;3.30;;;;;;;1.15;78.71;98437.88;102337;1298;74394;-25
2022/12/07 11:00:45;;;;;;;4.20;2.70;;;;;;;1.00;79.31;98438.31;102373;1299;75766;-25
2022/12/07 11:03:23;;;;;;;;;;;;;;;1.07;79.67;98437.40;102355;1291;74261;-25
2022/12/07 11:06:26;;;;;;;5.00;3.60;;;;;;;1.26;78.91;98437.79;102238;1300;61830;-27
2022/12/07 11:09:17;;;;;;;5.30;3.80;;;;;;;1.30;78.81;98435.53;102403;1299;61854;-27
2022/12/07 11:11:51;;;;;;;4.70;3.00;;;;;;;1.11;79.45;98440.67;102344;1296;74626;-27
2022/12/07 11:14:23;;;;;;;8.20;4.80;;;;;;;1.02;79.76;98442.32;101973;1298;75950;-27
2022/12/07 11:16:59;;;;;;;6.30;4.10;;;;;;;0.70;81.18;98441.71;102069;1292;74060;-27
2022/12/07 11:19:50;;;;;;;5.90;3.90;;;;;;;1.05;80.53;98443.02;102217;1299;61050;-26
2022/12/07 11:22:23;;;;;;;4.20;3.10;;;;;;;1.43;78.97;98434.20;102339;1302;61137;-26
2022/12/07 11:24:54;;;;;;;5.50;3.80;;;;;;;1.39;78.44;98435.41;102085;1301;74167;-26
2022/12/07 11:27:27;;;;;;;8.60;4.10;;;;;;;0.92;80.27;98440.58;102317;1298;75631;-25
2022/12/07 11:30:12;;;;;;;3.80;2.80;;;;;;;0.84;81.10;98439.98;102334;1302;74242;-26
2022/12/07 11:33:02;;;;;;;5.10;3.60;;;;;;;1.00;80.89;98438.30;102246;1296;62795;-26
2022/12/07 11:35:54;;;;;;;6.20;3.80;;;;;;;1.58;78.94;98440.04;102008;1302;61111;-26
2022/12/07 11:38:26;;;;;;;7.10;3.20;;;;;;;1.66;77.88;98442.69;102264;1299;74532;-26
2022/12/07 11:41:12;;;;;;;9.70;5.20;;;;;;;1.15;79.71;98438.75;101936;1299;75798;-26
2022/12/07 11:43:59;;;;;;;6.00;4.20;;;;;;;1.15;79.59;98433.77;102135;1295;74117;-25
2022/12/07 11:46:29;;;;;;;5.00;4.30;;;;;;;0.90;80.30;98437.42;102149;1299;61129;-25
2022/12/07 11:49:24;;;;;;;7.50;4.40;;;;;;;0.97;81.01;98432.82;102067;1305;61307;-25
2022/12/07 11:51:52;;;;;;;6.90;4.30;;;;;;;1.50;79.22;98433.16;102150;1299;74456;-25
2022/12/07 11:54:32;;;;;;;5.70;3.80;;;;;;;1.55;78.52;98429.11;102116;1301;73808;-25
2022/12/07 11:57:03;;;;;;;8.50;4.70;;;;;;;1.27;78.93;98422.55;102148;1302;74180;-25
2022/12/07 11:59:39;;;;;;;6.70;4.10;;;;;;;1.05;79.72;98422.01;102083;1305;61190;-25
2022/12/07 12:02:14;;;;;;;7.70;4.90;;;;;;;0.99;80.59;98417.34;101983;1305;62184;-25
2022/12/07 12:04:59;;;;;;;10.50;6.90;;;;;;;1.36;79.82;98408.39;102217;1300;72968;-25
2022/12/07 12:07:27;;;;;;;11.00;5.00;;;;;;;1.47;78.79;98404.36;102134;1302;76032;-25
2022/12/07 12:10:46;;;;;;;7.00;4.50;;;;;;;1.30;79.18;98399.65;102350;1298;74169;-26
2022/12/07 12:13:34;;;;;;;9.10;4.70;;;;;;;1.16;79.39;98394.91;102172;1299;61349;-25
2022/12/07 12:16:34;;;;;;;6.50;4.20;;;;;;;0.98;80.29;98388.99;102216;1299;61972;-26
2022/12/07 12:19:14;;;;;;;9.00;5.70;;;;;;;1.50;79.42;98381.48;102260;1302;74604;-25
2022/12/07 12:21:41;;;;;;;6.30;3.90;;;;;;;1.89;77.77;98379.81;102356;1302;75827;-25